Time;durP1;ratioP1;P1;durP2;ratioP2;P2;SDS_P1;SDS_P2;PMS_P1;PMS_P2;Temp;Humidity;BMP_temperature;BMP_pressure;BME280_temperature;BME280_humidity;BME280_pressure;Samples;Min_cycle;Max_cycle;Signal;HPM_P1;HPM_P2
2021/10/02 07:07:26;;;;;;;10.82;8.52;;;;;;;;;;10413075;28;20088;-83
2021/10/02 07:12:27;;;;;;;9.57;7.80;;;;;;;;;;10388684;28;20085;-83
2021/10/02 07:17:28;;;;;;;8.52;5.95;;;;;;;;;;10370952;23;20070;-83
2021/10/02 07:22:34;;;;;;;12.48;9.02;;;;;;;;;;10303991;28;20043;-85
2021/10/02 07:27:35;;;;;;;13.65;11.52;;;;;;;;;;10301224;28;20039;-84
2021/10/02 07:32:37;;;;;;;8.05;6.30;;;;;;;;;;10298348;28;20039;-82
2021/10/02 07:37:38;;;;;;;9.70;7.95;;;;;;;;;;10293507;28;20035;-81
2021/10/02 07:42:39;;;;;;;11.90;8.40;;;;;;;;;;10287121;28;20046;-81
2021/10/02 07:47:41;;;;;;;13.43;10.75;;;;;;;;;;10290292;28;20043;-82
2021/10/02 07:52:43;;;;;;;10.38;8.05;;;;;;;;;;10289793;28;20073;-81
2021/10/02 07:57:47;;;;;;;9.20;7.35;;;;;;;;;;10288266;28;20082;-83
2021/10/02 08:02:49;;;;;;;6.45;5.13;;;;;;;;;;10304689;28;20185;-81
2021/10/02 08:07:50;;;;;;;8.30;6.95;;;;;;;;;;10287864;28;20054;-82
2021/10/02 08:12:51;;;;;;;7.90;4.97;;;;;;;;;;10286521;28;20106;-82
2021/10/02 08:17:55;;;;;;;6.10;3.90;;;;;;;;;;10287397;28;20051;-83
2021/10/02 08:22:58;;;;;;;3.90;2.63;;;;;;;;;;10288380;28;20058;-81
2021/10/02 08:27:59;;;;;;;3.72;2.55;;;;;;;;;;10286148;28;20069;-81
2021/10/02 08:33:00;;;;;;;4.45;2.60;;;;;;;;;;10284950;28;20035;-83
2021/10/02 08:38:01;;;;;;;3.60;2.38;;;;;;;;;;10286385;28;20058;-82
2021/10/02 08:43:03;;;;;;;3.13;1.90;;;;;;;;;;10285743;28;20134;-84
2021/10/02 08:48:05;;;;;;;4.43;2.10;;;;;;;;;;10286545;28;20039;-82
2021/10/02 08:53:06;;;;;;;4.00;2.47;;;;;;;;;;10284000;28;20090;-81
2021/10/02 08:58:07;;;;;;;2.65;1.92;;;;;;;;;;10283725;28;20122;-82
2021/10/02 09:03:08;;;;;;;2.92;1.85;;;;;;;;;;10301328;28;20469;-80
2021/10/02 09:08:09;;;;;;;3.88;1.75;;;;;;;;;;10282810;28;20031;-81
2021/10/02 09:13:10;;;;;;;2.22;1.20;;;;;;;;;;10284962;28;20501;-82
2021/10/02 09:18:11;;;;;;;2.70;1.25;;;;;;;;;;10282183;28;20050;-81
2021/10/02 09:23:12;;;;;;;3.80;1.20;;;;;;;;;;10284664;28;20046;-84
2021/10/02 09:28:14;;;;;;;1.58;1.00;;;;;;;;;;10284766;28;20031;-81
2021/10/02 09:33:26;;;;;;;2.25;1.30;;;;;;;;;;10285960;28;20061;-81
2021/10/02 09:38:27;;;;;;;3.30;1.30;;;;;;;;;;10301054;28;20031;-81
2021/10/02 09:43:30;;;;;;;4.22;1.20;;;;;;;;;;10314248;28;20034;-85
2021/10/02 09:48:32;;;;;;;2.05;1.20;;;;;;;;;;10315134;28;20102;-85
2021/10/02 09:53:38;;;;;;;1.83;1.13;;;;;;;;;;10310950;28;20070;-84
2021/10/02 10:04:33;;;;;;;3.28;1.33;;;;;;;;;;10337374;28;20018;-83
2021/10/02 10:10:15;;;;;;;2.83;1.13;;;;;;;;;;10341771;28;20038;-85
2021/10/02 10:21:00;;;;;;;4.47;2.42;;;;;;;;;;10329298;28;20097;-82
2021/10/02 10:26:21;;;;;;;3.42;2.13;;;;;;;;;;10325575;28;20038;-82
2021/10/02 10:31:25;;;;;;;2.83;2.10;;;;;;;;;;10295304;28;20074;-85
2021/10/02 10:36:27;;;;;;;2.90;1.73;;;;;;;;;;10293892;28;20041;-80
2021/10/02 10:41:29;;;;;;;3.33;1.50;;;;;;;;;;10307721;28;20031;-80
2021/10/02 10:46:30;;;;;;;2.05;1.60;;;;;;;;;;10289817;28;20052;-80
2021/10/02 10:51:31;;;;;;;2.10;1.67;;;;;;;;;;10292765;28;20038;-82
2021/10/02 10:56:36;;;;;;;3.50;2.90;;;;;;;;;;10295638;28;20361;-83
2021/10/02 11:01:38;;;;;;;6.43;1.70;;;;;;;;;;10262384;29;20035;-80
2021/10/02 11:06:53;;;;;;;1.90;1.40;;;;;;;;;;10269148;29;20147;-83
2021/10/02 11:11:54;;;;;;;2.15;1.48;;;;;;;;;;10287840;28;20034;-82
2021/10/02 11:17:00;;;;;;;2.05;1.50;;;;;;;;;;10270978;29;20043;-81
2021/10/02 11:22:02;;;;;;;3.45;1.40;;;;;;;;;;10271393;28;20046;-83
2021/10/02 11:27:04;;;;;;;2.42;1.40;;;;;;;;;;10268807;29;20394;-84
2021/10/02 11:32:17;;;;;;;2.33;1.30;;;;;;;;;;10262559;29;20039;-84
2021/10/02 11:37:21;;;;;;;3.67;1.30;;;;;;;;;;10260675;28;20086;-82
2021/10/02 11:42:22;;;;;;;2.08;1.58;;;;;;;;;;10296186;28;20047;-83
2021/10/02 11:47:34;;;;;;;3.05;1.30;;;;;;;;;;10325570;28;20120;-84
2021/10/02 11:53:07;;;;;;;2.13;1.20;;;;;;;;;;10303640;28;20027;-84
2021/10/02 13:16:30;;;;;;;;;;;;;;;;;;10974184;23;20046;-87
2021/10/02 13:21:32;;;;;;;1.80;1.10;;;;;;;;;;10320089;28;19920;-86
2021/10/02 13:26:33;;;;;;;3.75;1.00;;;;;;;;;;10320588;28;20062;-86
2021/10/02 13:31:34;;;;;;;1.80;1.00;;;;;;;;;;10319562;28;20082;-87
2021/10/02 13:36:37;;;;;;;1.80;1.00;;;;;;;;;;10320543;28;20035;-87
2021/10/02 13:41:46;;;;;;;2.05;1.08;;;;;;;;;;10351676;28;20515;-87
2021/10/02 13:46:48;;;;;;;2.42;1.02;;;;;;;;;;10360182;28;20035;-84
2021/10/02 13:51:49;;;;;;;1.77;1.00;;;;;;;;;;10335600;28;20420;-87
2021/10/02 13:56:50;;;;;;;2.45;1.10;;;;;;;;;;10321484;28;20070;-87
2021/10/02 14:01:51;;;;;;;1.27;0.95;;;;;;;;;;10323770;28;20473;-86
2021/10/02 14:06:52;;;;;;;;;;;;;;;;;;10323226;28;20034;-87
2021/10/02 14:11:53;;;;;;;2.00;1.23;;;;;;;;;;10362870;28;19956;-85
2021/10/02 14:16:55;;;;;;;1.65;1.02;;;;;;;;;;10323872;28;20113;-87
2021/10/02 14:21:56;;;;;;;2.25;1.30;;;;;;;;;;10317692;28;20061;-86
2021/10/02 14:26:57;;;;;;;2.22;1.33;;;;;;;;;;10320673;28;20030;-87
2021/10/02 14:31:58;;;;;;;1.95;1.20;;;;;;;;;;10318034;28;20038;-87
2021/10/02 14:37:10;;;;;;;2.75;1.20;;;;;;;;;;10316744;28;20030;-87
2021/10/02 14:42:10;;;;;;;2.90;1.10;;;;;;;;;;10336551;28;20041;-87
2021/10/02 14:47:11;;;;;;;1.80;1.20;;;;;;;;;;10318433;28;20408;-88
2021/10/02 14:52:15;;;;;;;1.65;1.20;;;;;;;;;;10318842;28;20456;-87
2021/10/02 14:57:16;;;;;;;2.38;1.38;;;;;;;;;;10321967;28;20043;-87
2021/10/02 15:02:17;;;;;;;2.38;1.42;;;;;;;;;;10317473;28;20035;-87
2021/10/02 15:07:34;;;;;;;1.70;1.13;;;;;;;;;;10317678;28;20563;-88
2021/10/02 15:12:36;;;;;;;2.17;1.33;;;;;;;;;;10325276;28;20089;-88
2021/10/02 15:17:58;;;;;;;5.22;3.83;;;;;;;;;;10336582;28;20146;-88
2021/10/02 15:23:02;;;;;;;2.97;1.70;;;;;;;;;;10325694;28;20069;-87
2021/10/02 15:28:05;;;;;;;2.55;1.40;;;;;;;;;;10325090;28;20501;-87
2021/10/02 15:33:16;;;;;;;3.70;1.70;;;;;;;;;;10325546;28;20038;-86
2021/10/02 15:38:18;;;;;;;3.10;1.60;;;;;;;;;;10325118;28;20153;-87
2021/10/02 15:43:19;;;;;;;1.55;1.30;;;;;;;;;;10359556;28;20050;-86
2021/10/02 15:48:20;;;;;;;2.15;1.33;;;;;;;;;;10344212;28;20047;-87
2021/10/02 15:53:21;;;;;;;2.70;1.77;;;;;;;;;;10340176;28;20037;-87
2021/10/02 15:58:23;;;;;;;3.03;1.70;;;;;;;;;;10323632;28;20049;-87
2021/10/02 16:03:54;;;;;;;3.10;1.90;;;;;;;;;;10330526;28;20035;-83
2021/10/02 16:08:59;;;;;;;2.95;1.60;;;;;;;;;;10283461;28;20058;-84
2021/10/02 16:14:00;;;;;;;3.75;1.67;;;;;;;;;;10260092;29;20028;-83
2021/10/02 16:19:02;;;;;;;3.20;1.92;;;;;;;;;;10317314;28;20100;-83
2021/10/02 16:24:03;;;;;;;5.68;2.75;;;;;;;;;;10323373;28;20396;-86
2021/10/02 16:29:06;;;;;;;4.82;2.53;;;;;;;;;;10324596;28;20037;-88
2021/10/02 16:34:07;;;;;;;3.85;2.45;;;;;;;;;;10324602;28;20062;-87
2021/10/02 16:39:09;;;;;;;5.28;2.30;;;;;;;;;;10384187;28;20027;-86
2021/10/02 16:44:10;;;;;;;3.35;2.20;;;;;;;;;;10347603;28;20042;-86
2021/10/02 16:49:11;;;;;;;3.25;2.20;;;;;;;;;;10331128;28;20097;-87
2021/10/02 16:54:12;;;;;;;4.63;2.65;;;;;;;;;;10322867;28;20433;-87
2021/10/02 16:59:13;;;;;;;4.82;2.03;;;;;;;;;;10324047;28;20100;-87
2021/10/02 17:04:14;;;;;;;4.05;2.33;;;;;;;;;;10323071;28;20035;-87
2021/10/02 17:09:15;;;;;;;4.93;3.03;;;;;;;;;;10324079;28;20502;-87
2021/10/02 17:14:16;;;;;;;4.22;3.00;;;;;;;;;;10323217;28;20026;-87
2021/10/02 17:19:18;;;;;;;5.80;3.30;;;;;;;;;;10321717;28;20500;-87
2021/10/02 17:24:19;;;;;;;4.47;2.30;;;;;;;;;;10321276;28;20062;-88
2021/10/02 17:29:20;;;;;;;8.68;2.90;;;;;;;;;;10319528;28;20558;-89
2021/10/02 17:34:21;;;;;;;4.70;2.58;;;;;;;;;;10337347;28;20031;-85
2021/10/02 17:39:22;;;;;;;4.60;2.67;;;;;;;;;;10317796;28;20034;-88
2021/10/02 17:44:23;;;;;;;3.70;2.40;;;;;;;;;;10318656;28;20034;-88
2021/10/02 17:49:24;;;;;;;11.00;3.65;;;;;;;;;;10318960;28;20134;-86
2021/10/02 17:54:25;;;;;;;3.50;2.40;;;;;;;;;;10318354;28;20081;-88
2021/10/02 17:59:26;;;;;;;5.10;2.97;;;;;;;;;;10325747;28;20110;-85
2021/10/02 18:04:27;;;;;;;4.45;2.70;;;;;;;;;;10345358;28;20042;-87
2021/10/02 18:09:28;;;;;;;4.22;2.80;;;;;;;;;;10321558;28;20042;-86
2021/10/02 18:14:32;;;;;;;4.40;2.60;;;;;;;;;;10325407;28;20392;-87
2021/10/02 18:19:33;;;;;;;5.57;2.80;;;;;;;;;;10336140;28;20043;-86
2021/10/02 18:24:37;;;;;;;10.27;3.25;;;;;;;;;;10317285;28;20069;-86
2021/10/02 18:29:38;;;;;;;5.63;2.85;;;;;;;;;;10323679;28;20047;-86
2021/10/02 18:34:39;;;;;;;4.85;2.70;;;;;;;;;;10351335;28;20033;-87
2021/10/02 18:39:40;;;;;;;;;;;;;;;;;;10317757;28;20034;-87
2021/10/02 18:44:41;;;;;;;3.63;2.00;;;;;;;;;;10317541;28;19906;-86
2021/10/02 18:49:42;;;;;;;4.25;2.58;;;;;;;;;;10321526;28;20038;-86
2021/10/02 18:54:43;;;;;;;;;;;;;;;;;;10326921;28;20117;-86
2021/10/02 18:59:44;;;;;;;4.45;3.05;;;;;;;;;;10325399;28;19906;-86
2021/10/02 19:04:46;;;;;;;;;;;;;;;;;;10327119;28;20034;-88
2021/10/02 19:09:50;;;;;;;4.70;1.95;;;;;;;;;;10327054;28;19955;-87
2021/10/02 19:14:52;;;;;;;3.15;1.65;;;;;;;;;;10340559;28;20035;-87
2021/10/02 19:19:54;;;;;;;;;;;;;;;;;;10324880;28;20053;-87
2021/10/02 19:25:00;;;;;;;3.13;2.20;;;;;;;;;;10342646;28;19905;-86
2021/10/02 19:30:01;;;;;;;3.13;1.80;;;;;;;;;;10329568;28;20061;-87
2021/10/02 19:35:05;;;;;;;;;;;;;;;;;;10365904;28;20030;-87
2021/10/02 19:40:13;;;;;;;2.58;1.60;;;;;;;;;;10349754;28;20283;-87
2021/10/02 19:45:14;;;;;;;7.10;4.60;;;;;;;;;;10337892;28;20113;-88
2021/10/02 19:50:15;;;;;;;;;;;;;;;;;;10330666;28;20149;-87
2021/10/02 19:55:19;;;;;;;4.28;2.08;;;;;;;;;;10358498;28;19917;-86
2021/10/02 20:00:20;;;;;;;3.58;2.40;;;;;;;;;;10370888;28;20039;-86
2021/10/02 20:05:24;;;;;;;;;;;;;;;;;;10337065;28;20085;-88
2021/10/02 20:10:25;;;;;;;3.42;2.20;;;;;;;;;;10323711;28;19941;-87
2021/10/02 20:15:26;;;;;;;7.78;5.05;;;;;;;;;;10329463;28;20511;-86
2021/10/02 20:20:26;;;;;;;;;;;;;;;;;;10323039;28;20077;-86
2021/10/02 20:25:29;;;;;;;3.80;2.42;;;;;;;;;;10320534;28;20387;-86
2021/10/02 20:30:30;;;;;;;5.30;2.40;;;;;;;;;;10321389;28;20034;-87
2021/10/02 20:35:31;;;;;;;;;;;;;;;;;;10323296;28;20030;-86
2021/10/02 20:40:33;;;;;;;5.82;4.13;;;;;;;;;;10322980;28;19905;-87
2021/10/02 20:45:34;;;;;;;4.30;2.78;;;;;;;;;;10321846;28;20218;-87
2021/10/02 20:50:35;;;;;;;3.65;2.38;;;;;;;;;;10323314;28;20065;-87
2021/10/02 20:55:37;;;;;;;4.05;2.65;;;;;;;;;;10320486;28;20031;-88
2021/10/02 21:00:38;;;;;;;4.82;2.97;;;;;;;;;;10323053;28;20041;-87
2021/10/02 21:05:39;;;;;;;;;;;;;;;;;;10323777;28;20037;-87
2021/10/02 21:10:40;;;;;;;3.47;2.72;;;;;;;;;;10338149;28;19910;-87
2021/10/02 21:15:45;;;;;;;3.50;2.40;;;;;;;;;;10321986;28;20563;-87
2021/10/02 21:20:47;;;;;;;3.47;2.63;;;;;;;;;;10321794;28;20064;-87
2021/10/02 21:25:55;;;;;;;4.43;2.95;;;;;;;;;;10323774;28;20095;-88
2021/10/02 21:30:58;;;;;;;4.78;2.55;;;;;;;;;;10324211;28;20088;-88
2021/10/02 21:35:59;;;;;;;3.40;2.65;;;;;;;;;;10323897;28;20042;-88
2021/10/02 21:41:05;;;;;;;4.22;2.85;;;;;;;;;;10325177;28;20045;-88
2021/10/02 21:46:08;;;;;;;3.40;2.40;;;;;;;;;;10323964;28;20042;-87
2021/10/02 21:51:11;;;;;;;4.68;2.88;;;;;;;;;;10333551;28;20098;-85
2021/10/02 21:56:12;;;;;;;4.18;2.35;;;;;;;;;;10337302;28;20554;-87
2021/10/02 22:01:18;;;;;;;4.32;2.33;;;;;;;;;;10321698;28;20085;-87
2021/10/02 22:06:22;;;;;;;3.15;2.63;;;;;;;;;;10340815;28;20041;-88
2021/10/02 22:11:23;;;;;;;4.22;3.00;;;;;;;;;;10336679;28;20030;-87
2021/10/02 22:16:26;;;;;;;4.25;2.78;;;;;;;;;;10319349;28;20049;-88
2021/10/02 22:21:29;;;;;;;4.38;2.65;;;;;;;;;;10337417;28;20113;-87
2021/10/02 22:26:31;;;;;;;3.45;2.72;;;;;;;;;;10326401;28;20512;-87
2021/10/02 22:31:32;;;;;;;4.70;2.92;;;;;;;;;;10357105;28;20046;-87
2021/10/02 22:36:33;;;;;;;5.15;2.67;;;;;;;;;;10358520;28;20042;-87
2021/10/02 22:41:35;;;;;;;;;;;;;;;;;;10351661;28;20034;-88
2021/10/02 22:46:42;;;;;;;4.00;2.83;;;;;;;;;;10331636;28;19916;-88
2021/10/02 22:51:43;;;;;;;3.30;2.58;;;;;;;;;;10331436;28;20457;-88
2021/10/02 22:56:44;;;;;;;5.18;2.67;;;;;;;;;;10333648;28;20117;-86
2021/10/02 23:01:46;;;;;;;;;;;;;;;;;;10328708;28;20074;-87
2021/10/02 23:06:48;;;;;;;3.75;2.45;;;;;;;;;;10326343;28;20430;-87
2021/10/02 23:11:50;;;;;;;3.00;2.47;;;;;;;;;;10325672;28;20396;-86
2021/10/02 23:16:53;;;;;;;4.43;2.53;;;;;;;;;;10325501;28;20129;-86
2021/10/02 23:21:56;;;;;;;5.45;2.75;;;;;;;;;;10324583;28;20038;-87
2021/10/02 23:27:04;;;;;;;4.07;2.67;;;;;;;;;;10333065;28;20062;-87
2021/10/02 23:32:08;;;;;;;4.00;2.97;;;;;;;;;;10334830;28;20138;-87
2021/10/02 23:37:09;;;;;;;5.63;2.85;;;;;;;;;;10323032;28;20026;-87
2021/10/02 23:42:11;;;;;;;4.88;3.00;;;;;;;;;;10346692;28;20034;-88
2021/10/02 23:47:13;;;;;;;4.35;2.90;;;;;;;;;;10338341;28;20045;-82
2021/10/02 23:52:15;;;;;;;4.80;2.67;;;;;;;;;;10339315;28;20057;-86
2021/10/02 23:57:18;;;;;;;4.57;2.78;;;;;;;;;;10321391;28;20484;-87
